Time;durP1;ratioP1;P1;durP2;ratioP2;P2;SDS_P1;SDS_P2;PMS_P1;PMS_P2;Temp;Humidity;BMP_temperature;BMP_pressure;BME280_temperature;BME280_humidity;BME280_pressure;Samples;Min_cycle;Max_cycle;Signal;HPM_P1;HPM_P2
2021/12/05 00:21:42;;;;;;;2.30;1.13;;;;;;;;;;5048375;28;20087;-66
2021/12/05 00:24:13;;;;;;;4.30;0.95;;;;;;;;;;5049067;28;20139;-66
2021/12/05 00:26:41;;;;;;;2.58;0.60;;;;;;;;;;5048147;28;20514;-66
2021/12/05 00:29:17;;;;;;;3.50;0.95;;;;;;;;;;5046182;28;20076;-66
2021/12/05 00:32:06;;;;;;;5.00;0.95;;;;;;;;;;5049130;28;20399;-66
2021/12/05 00:34:57;;;;;;;0.73;0.65;;;;;;;;;;5049940;28;20483;-66
2021/12/05 00:37:59;;;;;;;2.17;0.65;;;;;;;;;;5049262;28;20450;-66
2021/12/05 00:46:22;;;;;;;1.67;1.15;;;;;;;;;;5045535;28;20484;-66
2021/12/05 00:49:10;;;;;;;1.52;0.80;;;;;;;;;;5049785;28;20418;-66
2021/12/05 01:03:08;;;;;;;3.45;0.90;;;;;;;;;;5045445;28;20822;-67
2021/12/05 01:11:12;;;;;;;3.65;0.90;;;;;;;;;;5045746;28;20052;-66
2021/12/05 01:13:46;;;;;;;1.42;0.80;;;;;;;;;;5044508;28;20111;-66
2021/12/05 01:16:16;;;;;;;9.75;0.90;;;;;;;;;;5047859;28;20077;-66
2021/12/05 01:18:45;;;;;;;2.13;0.90;;;;;;;;;;5050103;28;20045;-66
2021/12/05 01:21:15;;;;;;;1.50;0.70;;;;;;;;;;5049708;28;20053;-66
2021/12/05 01:23:51;;;;;;;2.97;0.63;;;;;;;;;;5048612;28;20053;-66
2021/12/05 01:26:22;;;;;;;3.95;0.95;;;;;;;;;;5050412;28;20060;-65
2021/12/05 01:29:08;;;;;;;0.75;0.47;;;;;;;;;;5051184;28;20076;-65
2021/12/05 01:31:45;;;;;;;1.60;0.70;;;;;;;;;;5049772;28;20492;-65
2021/12/05 01:34:27;;;;;;;2.67;0.60;;;;;;;;;;5048782;28;20056;-65
2021/12/05 01:37:05;;;;;;;1.95;0.70;;;;;;;;;;5045466;28;20041;-65
2021/12/05 01:39:44;;;;;;;1.42;0.75;;;;;;;;;;5049405;28;20044;-65
2021/12/05 01:45:29;;;;;;;1.80;1.02;;;;;;;;;;5048397;28;20045;-65
2021/12/05 01:48:32;;;;;;;1.35;0.70;;;;;;;;;;5047004;28;20060;-65
2021/12/05 01:54:06;;;;;;;1.67;0.60;;;;;;;;;;5049138;28;20048;-66
2021/12/05 01:57:02;;;;;;;1.05;0.60;;;;;;;;;;5039091;28;20057;-65
2021/12/05 01:59:40;;;;;;;3.38;0.68;;;;;;;;;;5050747;28;20052;-65
2021/12/05 02:02:49;;;;;;;2.63;0.75;;;;;;;;;;5049792;28;20052;-65
2021/12/05 02:08:31;;;;;;;1.30;0.93;;;;;;;;;;5052320;28;21417;-65
2021/12/05 02:11:11;;;;;;;1.00;0.60;;;;;;;;;;5049238;28;20139;-65
2021/12/05 02:16:44;;;;;;;1.63;0.80;;;;;;;;;;5052638;28;20052;-65
2021/12/05 02:30:38;;;;;;;2.55;1.10;;;;;;;;;;5047386;28;20098;-65
2021/12/05 02:41:15;;;;;;;3.53;0.90;;;;;;;;;;5046247;28;20052;-65
2021/12/05 02:43:45;;;;;;;2.45;0.75;;;;;;;;;;5052604;28;20080;-65
2021/12/05 02:46:14;;;;;;;3.05;0.95;;;;;;;;;;5054250;28;20052;-65
2021/12/05 02:48:42;;;;;;;0.68;0.52;;;;;;;;;;5055370;28;20501;-66
2021/12/05 02:51:14;;;;;;;6.97;0.75;;;;;;;;;;5045515;28;20048;-66
2021/12/05 02:53:47;;;;;;;4.38;0.82;;;;;;;;;;5046093;28;20392;-65
2021/12/05 02:56:14;;;;;;;4.38;0.90;;;;;;;;;;5057367;28;20218;-65
2021/12/05 02:58:43;;;;;;;5.43;0.80;;;;;;;;;;5047775;28;20114;-65
2021/12/05 03:01:18;;;;;;;4.70;0.80;;;;;;;;;;5054505;28;20109;-65
2021/12/05 03:03:46;;;;;;;2.03;0.68;;;;;;;;;;5048916;28;20049;-65
2021/12/05 03:06:17;;;;;;;6.30;1.27;;;;;;;;;;5051027;28;20094;-65
2021/12/05 03:08:47;;;;;;;4.50;0.70;;;;;;;;;;5050825;28;20056;-65
2021/12/05 03:11:14;;;;;;;3.05;0.52;;;;;;;;;;5048767;28;20064;-66
2021/12/05 03:13:42;;;;;;;5.32;0.80;;;;;;;;;;5051684;28;20053;-65
2021/12/05 03:16:10;;;;;;;3.60;0.70;;;;;;;;;;5052328;28;20095;-65
2021/12/05 03:18:36;;;;;;;0.90;0.60;;;;;;;;;;5049838;28;20190;-65
2021/12/05 03:21:04;;;;;;;4.85;0.93;;;;;;;;;;5051641;28;20045;-66
2021/12/05 03:23:31;;;;;;;4.35;1.13;;;;;;;;;;5052076;28;20414;-65
2021/12/05 03:25:59;;;;;;;2.55;0.80;;;;;;;;;;5052552;28;20110;-65
2021/12/05 03:28:26;;;;;;;1.48;0.55;;;;;;;;;;5050829;28;20670;-66
2021/12/05 03:30:52;;;;;;;4.25;0.88;;;;;;;;;;5048863;28;20170;-65
2021/12/05 03:33:19;;;;;;;2.17;0.80;;;;;;;;;;5056063;28;20066;-65
2021/12/05 03:35:46;;;;;;;3.45;0.90;;;;;;;;;;5054719;28;20110;-65
2021/12/05 03:38:12;;;;;;;2.80;0.70;;;;;;;;;;5045451;28;20115;-65
2021/12/05 03:40:41;;;;;;;1.98;0.70;;;;;;;;;;5051274;28;20045;-65
2021/12/05 03:43:11;;;;;;;3.67;0.82;;;;;;;;;;5050520;28;20479;-65
2021/12/05 03:45:42;;;;;;;2.35;1.48;;;;;;;;;;5051173;28;20574;-65
2021/12/05 03:48:10;;;;;;;1.67;0.77;;;;;;;;;;5051086;28;20053;-65
2021/12/05 03:50:37;;;;;;;3.80;0.77;;;;;;;;;;5059222;28;20053;-65
2021/12/05 03:53:04;;;;;;;3.80;0.70;;;;;;;;;;5050672;28;20080;-66
2021/12/05 03:55:30;;;;;;;1.55;0.70;;;;;;;;;;5055138;28;20126;-66
2021/12/05 03:57:57;;;;;;;4.75;0.73;;;;;;;;;;5043023;28;20053;-65
2021/12/05 04:00:29;;;;;;;1.33;0.68;;;;;;;;;;5056511;28;21014;-66
2021/12/05 04:02:57;;;;;;;1.38;0.75;;;;;;;;;;5050656;28;20130;-66
2021/12/05 04:05:25;;;;;;;7.43;1.15;;;;;;;;;;5050895;28;20049;-66
2021/12/05 04:07:52;;;;;;;2.75;1.00;;;;;;;;;;5049930;28;20049;-65
2021/12/05 04:10:19;;;;;;;4.63;1.08;;;;;;;;;;5046912;28;20122;-65
2021/12/05 04:12:47;;;;;;;1.27;0.73;;;;;;;;;;5047949;28;20142;-65
2021/12/05 04:15:14;;;;;;;2.50;0.77;;;;;;;;;;5041403;28;20079;-65
2021/12/05 04:17:42;;;;;;;3.63;1.00;;;;;;;;;;5051997;28;20770;-65
2021/12/05 04:20:12;;;;;;;2.30;1.02;;;;;;;;;;5049349;28;20111;-66
2021/12/05 04:22:39;;;;;;;3.30;1.23;;;;;;;;;;5049889;28;20424;-66
2021/12/05 04:25:09;;;;;;;4.90;1.10;;;;;;;;;;5047473;28;20058;-66
2021/12/05 04:27:36;;;;;;;4.15;1.02;;;;;;;;;;5050559;28;20052;-66
2021/12/05 04:30:04;;;;;;;4.88;1.10;;;;;;;;;;5050494;28;20682;-66
2021/12/05 04:32:30;;;;;;;3.75;1.75;;;;;;;;;;5050011;28;20076;-65
2021/12/05 04:34:58;;;;;;;3.97;0.98;;;;;;;;;;5047035;28;20084;-65
2021/12/05 04:37:25;;;;;;;5.10;1.33;;;;;;;;;;5049084;28;20173;-66
2021/12/05 04:39:52;;;;;;;3.85;0.90;;;;;;;;;;5049666;28;20080;-66
2021/12/05 04:42:19;;;;;;;5.30;1.10;;;;;;;;;;5049481;28;20146;-66
2021/12/05 04:44:46;;;;;;;5.95;1.60;;;;;;;;;;5054556;28;20052;-66
2021/12/05 04:47:13;;;;;;;8.07;2.72;;;;;;;;;;5049146;28;20049;-66
2021/12/05 04:49:40;;;;;;;4.40;1.50;;;;;;;;;;5049324;28;20388;-66
2021/12/05 04:52:10;;;;;;;2.30;1.08;;;;;;;;;;5043418;28;20091;-66
2021/12/05 04:54:38;;;;;;;3.30;1.15;;;;;;;;;;5050113;28;20075;-66
2021/12/05 04:57:05;;;;;;;4.13;1.20;;;;;;;;;;5053937;28;20141;-66
2021/12/05 04:59:35;;;;;;;3.88;0.88;;;;;;;;;;5053652;28;20061;-66
2021/12/05 05:02:02;;;;;;;4.93;1.45;;;;;;;;;;5052788;28;20041;-65
2021/12/05 05:04:29;;;;;;;2.78;1.20;;;;;;;;;;5049976;28;20045;-66
2021/12/05 05:06:59;;;;;;;4.00;1.55;;;;;;;;;;5048957;28;20053;-66
2021/12/05 05:09:28;;;;;;;4.45;1.02;;;;;;;;;;5049297;28;20048;-66
2021/12/05 05:11:54;;;;;;;4.75;1.33;;;;;;;;;;5055474;28;20057;-66
2021/12/05 05:14:21;;;;;;;3.42;1.40;;;;;;;;;;5047979;28;20057;-66
2021/12/05 05:16:53;;;;;;;2.70;0.93;;;;;;;;;;5052439;28;20076;-66
2021/12/05 05:19:24;;;;;;;3.63;1.30;;;;;;;;;;5048781;28;20053;-66
2021/12/05 05:21:59;;;;;;;2.40;1.30;;;;;;;;;;5049467;28;20049;-65
2021/12/05 05:30:40;;;;;;;7.35;1.48;;;;;;;;;;5050099;28;20090;-66
2021/12/05 05:44:33;;;;;;;2.20;1.23;;;;;;;;;;5051092;28;20058;-66
2021/12/05 05:47:05;;;;;;;3.17;0.85;;;;;;;;;;5054461;28;20052;-66
2021/12/05 05:49:46;;;;;;;5.28;1.33;;;;;;;;;;5054642;28;20040;-66
2021/12/05 05:52:13;;;;;;;4.13;1.55;;;;;;;;;;5051134;28;20045;-66
2021/12/05 05:54:43;;;;;;;6.45;1.20;;;;;;;;;;5053034;28;20049;-66
2021/12/05 05:57:18;;;;;;;5.32;0.90;;;;;;;;;;5043813;28;20052;-66
2021/12/05 05:59:50;;;;;;;11.23;1.65;;;;;;;;;;5056001;28;20045;-66
2021/12/05 06:05:01;;;;;;;4.32;1.42;;;;;;;;;;5052743;28;20549;-66
2021/12/05 06:07:29;;;;;;;4.38;0.95;;;;;;;;;;5052733;28;20099;-66
2021/12/05 06:09:55;;;;;;;2.83;1.00;;;;;;;;;;5055310;28;20076;-66
2021/12/05 06:12:23;;;;;;;2.58;1.00;;;;;;;;;;5052393;28;20438;-66
2021/12/05 06:14:50;;;;;;;3.80;1.17;;;;;;;;;;5055775;28;20067;-66
2021/12/05 06:17:18;;;;;;;4.47;1.15;;;;;;;;;;5053628;28;20057;-66
2021/12/05 06:19:45;;;;;;;5.03;1.30;;;;;;;;;;5054202;28;20052;-66
2021/12/05 06:22:11;;;;;;;4.70;1.20;;;;;;;;;;5056414;28;20049;-66
2021/12/05 06:24:38;;;;;;;2.47;1.25;;;;;;;;;;5051710;28;20048;-66
2021/12/05 06:27:05;;;;;;;4.10;1.20;;;;;;;;;;5056045;28;20492;-66
2021/12/05 06:29:37;;;;;;;4.07;1.02;;;;;;;;;;5050546;28;20052;-66
2021/12/05 06:32:32;;;;;;;3.63;1.20;;;;;;;;;;5053428;28;20530;-66
2021/12/05 06:37:49;;;;;;;5.20;2.33;;;;;;;;;;5059761;28;20091;-66
2021/12/05 06:43:05;;;;;;;4.68;1.30;;;;;;;;;;5045709;28;20132;-66
2021/12/05 06:48:17;;;;;;;7.03;1.88;;;;;;;;;;5057048;28;20060;-66
2021/12/05 06:50:44;;;;;;;23.35;11.25;;;;;;;;;;5054536;28;20091;-66
2021/12/05 06:53:10;;;;;;;12.40;5.70;;;;;;;;;;5052002;28;20055;-66
2021/12/05 06:55:37;;;;;;;22.80;9.77;;;;;;;;;;5050933;28;20075;-66
2021/12/05 06:58:03;;;;;;;19.27;7.85;;;;;;;;;;5056034;28;20098;-66
2021/12/05 07:00:31;;;;;;;7.97;3.67;;;;;;;;;;5052473;28;20045;-66
2021/12/05 07:02:59;;;;;;;11.05;3.00;;;;;;;;;;5051466;28;20040;-66
2021/12/05 07:05:43;;;;;;;15.75;7.00;;;;;;;;;;5041574;28;20097;-66
2021/12/05 07:08:12;;;;;;;13.85;5.30;;;;;;;;;;5051996;28;20048;-66
2021/12/05 07:10:47;;;;;;;15.43;8.48;;;;;;;;;;5048360;28;20419;-66
2021/12/05 07:16:02;;;;;;;8.02;3.20;;;;;;;;;;5051247;28;20052;-66
2021/12/05 07:21:16;;;;;;;3.45;1.30;;;;;;;;;;5054645;28;20053;-66
2021/12/05 07:23:54;;;;;;;7.15;1.70;;;;;;;;;;5051563;28;20128;-66
2021/12/05 07:26:28;;;;;;;5.95;1.73;;;;;;;;;;5051696;28;20056;-66
2021/12/05 07:42:41;;;;;;;5.78;2.20;;;;;;;;;;5045338;28;20110;-66
2021/12/05 07:45:10;;;;;;;7.40;2.60;;;;;;;;;;5046538;28;20048;-66
2021/12/05 07:47:40;;;;;;;6.82;3.20;;;;;;;;;;5050002;28;20131;-66
2021/12/05 07:50:10;;;;;;;6.60;2.90;;;;;;;;;;5047248;28;20172;-66
2021/12/05 07:52:40;;;;;;;4.90;2.33;;;;;;;;;;5052713;28;20051;-66
2021/12/05 07:55:14;;;;;;;6.32;3.17;;;;;;;;;;5049633;28;20127;-66
2021/12/05 07:57:56;;;;;;;5.40;2.53;;;;;;;;;;5048026;28;20075;-66
2021/12/05 08:00:30;;;;;;;4.47;2.00;;;;;;;;;;5048732;28;20468;-66
2021/12/05 08:16:46;;;;;;;4.75;2.17;;;;;;;;;;5049813;28;20063;-66
2021/12/05 08:19:13;;;;;;;7.05;3.03;;;;;;;;;;5047894;28;20045;-66
2021/12/05 08:21:42;;;;;;;5.43;3.03;;;;;;;;;;5048860;28;20099;-66
2021/12/05 08:24:08;;;;;;;5.80;1.73;;;;;;;;;;5050160;28;20483;-66
2021/12/05 08:26:35;;;;;;;5.15;2.75;;;;;;;;;;5050881;28;20048;-66
2021/12/05 08:29:10;;;;;;;6.43;2.53;;;;;;;;;;5051930;28;20044;-66
2021/12/05 08:31:59;;;;;;;5.70;1.88;;;;;;;;;;5053129;28;20076;-66
2021/12/05 08:34:43;;;;;;;3.92;2.10;;;;;;;;;;5056071;28;20524;-66
2021/12/05 08:37:39;;;;;;;4.18;2.50;;;;;;;;;;5048604;28;20048;-66
2021/12/05 08:40:33;;;;;;;4.47;2.28;;;;;;;;;;5051561;28;20059;-66
2021/12/05 08:46:10;;;;;;;4.85;2.33;;;;;;;;;;5051598;28;20501;-66
2021/12/05 09:30:07;;;;;;;6.77;2.07;;;;;;;;;;5048299;28;20074;-66
2021/12/05 10:03:36;;;;;;;5.28;1.60;;;;;;;;;;5045965;28;20091;-67
2021/12/05 10:08:54;;;;;;;2.80;1.95;;;;;;;;;;5045297;28;20051;-67
2021/12/05 10:11:34;;;;;;;4.47;1.52;;;;;;;;;;5046336;28;20061;-67
2021/12/05 10:14:23;;;;;;;6.35;2.05;;;;;;;;;;5046053;28;20084;-67
2021/12/05 10:17:19;;;;;;;8.25;2.38;;;;;;;;;;5046408;28;20136;-67
2021/12/05 10:33:46;;;;;;;2.88;1.30;;;;;;;;;;5047679;28;20094;-67
2021/12/05 10:36:20;;;;;;;4.28;1.60;;;;;;;;;;5049056;28;20049;-67
2021/12/05 10:38:51;;;;;;;3.63;1.75;;;;;;;;;;5048150;28;20061;-67
2021/12/05 10:41:46;;;;;;;5.43;1.30;;;;;;;;;;5048515;28;20049;-67
2021/12/05 10:44:16;;;;;;;3.90;1.67;;;;;;;;;;5048095;28;20045;-67
2021/12/05 10:46:49;;;;;;;4.25;1.50;;;;;;;;;;5046479;28;20525;-67
2021/12/05 10:49:18;;;;;;;3.38;1.63;;;;;;;;;;5047175;28;20575;-67
2021/12/05 10:51:46;;;;;;;2.70;1.60;;;;;;;;;;5049632;28;20052;-67
2021/12/05 10:54:15;;;;;;;6.63;1.77;;;;;;;;;;5048971;28;20052;-67
2021/12/05 10:56:44;;;;;;;3.08;1.75;;;;;;;;;;5048104;28;20075;-66
2021/12/05 10:59:14;;;;;;;5.30;2.25;;;;;;;;;;5045522;28;21046;-67
2021/12/05 11:01:42;;;;;;;6.88;1.73;;;;;;;;;;5046384;28;20107;-67
2021/12/05 11:04:11;;;;;;;10.73;1.83;;;;;;;;;;5046777;28;20081;-67
2021/12/05 11:06:49;;;;;;;6.90;1.30;;;;;;;;;;5046879;28;20072;-67
2021/12/05 11:09:19;;;;;;;9.18;2.60;;;;;;;;;;5046804;28;20064;-67
2021/12/05 11:11:47;;;;;;;4.82;1.70;;;;;;;;;;5047436;28;20053;-67
2021/12/05 11:14:17;;;;;;;5.25;1.45;;;;;;;;;;5047804;28;20148;-67
2021/12/05 11:16:47;;;;;;;5.72;1.70;;;;;;;;;;5048997;28;20080;-67
2021/12/05 11:19:18;;;;;;;2.88;1.15;;;;;;;;;;5047755;28;20080;-68
2021/12/05 11:21:49;;;;;;;5.90;1.60;;;;;;;;;;5048508;28;21499;-67
2021/12/05 11:24:20;;;;;;;3.03;1.60;;;;;;;;;;5048373;28;20491;-67
2021/12/05 11:27:22;;;;;;;5.53;1.73;;;;;;;;;;5048727;28;20056;-67
2021/12/05 11:29:52;;;;;;;3.42;1.30;;;;;;;;;;5047993;28;20414;-67
2021/12/05 11:32:24;;;;;;;5.43;2.28;;;;;;;;;;5048442;28;20052;-67
2021/12/05 11:34:51;;;;;;;3.30;1.27;;;;;;;;;;5047719;28;20044;-67
2021/12/05 11:37:19;;;;;;;6.97;2.78;;;;;;;;;;5049434;28;20076;-67
2021/12/05 11:39:46;;;;;;;5.07;1.67;;;;;;;;;;5046653;28;20182;-67
2021/12/05 11:42:17;;;;;;;3.20;1.33;;;;;;;;;;5048462;28;20419;-67
2021/12/05 11:44:46;;;;;;;6.13;2.13;;;;;;;;;;5047214;28;20049;-67
2021/12/05 11:47:15;;;;;;;4.85;1.77;;;;;;;;;;5047500;28;20103;-68
2021/12/05 11:49:42;;;;;;;5.40;1.80;;;;;;;;;;5045919;28;20080;-67
2021/12/05 11:52:09;;;;;;;5.07;2.08;;;;;;;;;;5045199;28;20491;-67
2021/12/05 11:54:39;;;;;;;6.22;1.33;;;;;;;;;;5045836;28;20131;-67
2021/12/05 11:57:11;;;;;;;8.30;1.90;;;;;;;;;;5050683;28;20126;-67
2021/12/05 11:59:39;;;;;;;4.43;1.83;;;;;;;;;;5045573;28;20044;-67
2021/12/05 12:02:08;;;;;;;6.10;2.53;;;;;;;;;;5046261;28;20554;-67
2021/12/05 12:04:45;;;;;;;3.00;1.25;;;;;;;;;;5045763;28;20069;-68
2021/12/05 12:07:17;;;;;;;3.80;1.65;;;;;;;;;;5047025;28;20084;-67
2021/12/05 12:09:47;;;;;;;4.82;1.25;;;;;;;;;;5047521;28;20049;-67
2021/12/05 12:12:14;;;;;;;3.78;1.20;;;;;;;;;;5044571;28;20061;-67
2021/12/05 12:14:41;;;;;;;3.80;1.65;;;;;;;;;;5048488;28;20136;-67
2021/12/05 12:17:13;;;;;;;6.30;1.63;;;;;;;;;;5047915;28;20486;-67
2021/12/05 12:19:40;;;;;;;4.47;1.67;;;;;;;;;;5046284;28;20483;-67
2021/12/05 12:22:08;;;;;;;7.65;1.10;;;;;;;;;;5043634;28;20080;-67
2021/12/05 12:24:35;;;;;;;4.47;2.00;;;;;;;;;;5047319;28;20048;-67
2021/12/05 12:27:05;;;;;;;6.93;2.53;;;;;;;;;;5046502;28;20056;-68
2021/12/05 12:29:32;;;;;;;4.72;1.50;;;;;;;;;;5045808;28;20102;-67
2021/12/05 12:32:02;;;;;;;7.03;1.30;;;;;;;;;;5049372;28;20095;-68
2021/12/05 12:34:28;;;;;;;4.22;1.15;;;;;;;;;;5047526;28;20049;-67
2021/12/05 12:37:00;;;;;;;9.40;1.45;;;;;;;;;;5048733;28;20758;-67
2021/12/05 12:39:30;;;;;;;2.20;0.90;;;;;;;;;;5048072;28;20454;-67
2021/12/05 12:42:16;;;;;;;4.10;1.25;;;;;;;;;;5047086;28;20056;-68
2021/12/05 12:45:10;;;;;;;3.05;1.08;;;;;;;;;;5046821;28;20491;-67
2021/12/05 12:47:40;;;;;;;3.63;1.30;;;;;;;;;;5047669;28;20094;-67
2021/12/05 12:50:34;;;;;;;5.28;2.00;;;;;;;;;;5046839;28;20084;-67
2021/12/05 12:53:16;;;;;;;3.33;1.35;;;;;;;;;;5047595;28;20395;-67
2021/12/05 12:55:50;;;;;;;5.53;1.38;;;;;;;;;;5043562;28;20059;-67
2021/12/05 12:58:35;;;;;;;2.90;1.60;;;;;;;;;;5042695;28;20057;-67
2021/12/05 13:01:05;;;;;;;3.63;1.23;;;;;;;;;;5045467;28;21765;-68
2021/12/05 13:04:26;;;;;;;6.47;1.88;;;;;;;;;;5045444;28;20049;-68
2021/12/05 13:12:33;;;;;;;2.55;1.45;;;;;;;;;;5040924;28;20137;-67
2021/12/05 13:15:08;;;;;;;5.05;1.52;;;;;;;;;;5032374;28;20106;-67
2021/12/05 13:17:39;;;;;;;1.92;0.82;;;;;;;;;;5033261;28;20130;-67
2021/12/05 13:20:07;;;;;;;2.33;0.95;;;;;;;;;;5033384;28;20045;-67
2021/12/05 13:22:34;;;;;;;5.38;1.20;;;;;;;;;;5032874;28;20084;-68
2021/12/05 13:25:06;;;;;;;2.40;1.08;;;;;;;;;;5032151;28;20170;-67
2021/12/05 13:27:35;;;;;;;3.90;0.85;;;;;;;;;;5033824;28;20131;-68
2021/12/05 13:30:01;;;;;;;0.77;0.50;;;;;;;;;;5032526;28;20507;-68
2021/12/05 13:32:35;;;;;;;1.70;0.60;;;;;;;;;;5033119;28;20418;-68
2021/12/05 13:35:03;;;;;;;2.45;0.88;;;;;;;;;;5032969;28;20053;-68
2021/12/05 13:37:33;;;;;;;2.45;1.00;;;;;;;;;;5033738;28;20569;-68
2021/12/05 13:40:16;;;;;;;4.93;1.08;;;;;;;;;;5033483;28;20136;-68
2021/12/05 13:42:48;;;;;;;2.08;0.73;;;;;;;;;;5032968;28;20110;-68
2021/12/05 13:45:35;;;;;;;3.80;1.50;;;;;;;;;;5035070;28;20635;-68
2021/12/05 13:48:17;;;;;;;2.40;1.08;;;;;;;;;;5030833;28;20085;-68
2021/12/05 13:50:57;;;;;;;3.20;0.95;;;;;;;;;;5033348;28;20053;-68
2021/12/05 13:53:33;;;;;;;2.35;0.90;;;;;;;;;;5032831;28;20049;-69
2021/12/05 13:56:06;;;;;;;3.95;1.17;;;;;;;;;;5034683;28;20434;-68
2021/12/05 13:58:48;;;;;;;4.57;2.00;;;;;;;;;;5035523;28;20070;-69
2021/12/05 14:01:18;;;;;;;1.90;0.98;;;;;;;;;;5035761;28;20138;-69
2021/12/05 14:04:08;;;;;;;6.18;0.82;;;;;;;;;;5035803;28;20110;-68
2021/12/05 14:06:38;;;;;;;1.60;0.88;;;;;;;;;;5036673;28;20049;-69
2021/12/05 14:09:13;;;;;;;1.30;0.75;;;;;;;;;;5036154;28;21410;-68
2021/12/05 14:11:44;;;;;;;3.42;0.98;;;;;;;;;;5036163;28;20065;-69
2021/12/05 14:14:11;;;;;;;4.70;1.55;;;;;;;;;;5036719;28;20130;-69
2021/12/05 14:16:40;;;;;;;5.43;0.95;;;;;;;;;;5034715;28;20084;-68
2021/12/05 14:19:11;;;;;;;1.52;0.50;;;;;;;;;;5036143;28;20052;-68
2021/12/05 14:21:40;;;;;;;4.43;1.42;;;;;;;;;;5038745;28;20412;-68
2021/12/05 14:24:07;;;;;;;3.95;0.90;;;;;;;;;;5036814;28;20057;-69
2021/12/05 14:26:38;;;;;;;1.33;0.85;;;;;;;;;;5036631;28;20130;-69
2021/12/05 14:29:07;;;;;;;2.30;1.20;;;;;;;;;;5036359;28;20068;-69
2021/12/05 14:31:36;;;;;;;4.03;1.45;;;;;;;;;;5036105;28;20077;-68
2021/12/05 14:34:04;;;;;;;2.97;1.50;;;;;;;;;;5036354;28;20145;-68
2021/12/05 14:36:36;;;;;;;2.85;1.58;;;;;;;;;;5036761;28;20045;-68
2021/12/05 14:39:17;;;;;;;5.57;3.38;;;;;;;;;;5034079;28;20045;-69
2021/12/05 14:41:45;;;;;;;5.30;3.15;;;;;;;;;;5035323;28;20063;-69
2021/12/05 14:44:12;;;;;;;6.32;2.17;;;;;;;;;;5036934;28;21755;-68
2021/12/05 14:47:00;;;;;;;3.88;1.80;;;;;;;;;;5036859;28;20063;-69
2021/12/05 14:49:28;;;;;;;4.05;1.88;;;;;;;;;;5034791;28;20168;-69
2021/12/05 14:51:56;;;;;;;5.10;1.80;;;;;;;;;;5036614;28;20446;-68
2021/12/05 14:54:28;;;;;;;6.47;2.80;;;;;;;;;;5035143;28;20076;-68
2021/12/05 14:56:56;;;;;;;7.68;3.35;;;;;;;;;;5034747;28;20056;-68
2021/12/05 14:59:24;;;;;;;6.55;3.20;;;;;;;;;;5035278;28;20105;-68
2021/12/05 15:01:53;;;;;;;9.75;3.63;;;;;;;;;;5035570;28;20118;-68
2021/12/05 15:04:23;;;;;;;12.35;4.70;;;;;;;;;;5032825;28;20709;-69
2021/12/05 15:06:50;;;;;;;10.57;4.88;;;;;;;;;;5035995;28;20064;-68
2021/12/05 15:09:22;;;;;;;10.63;5.03;;;;;;;;;;5034938;28;20148;-69
2021/12/05 15:11:51;;;;;;;15.80;5.40;;;;;;;;;;5034229;28;20159;-68
2021/12/05 15:14:18;;;;;;;11.13;5.03;;;;;;;;;;5036277;28;20077;-69
2021/12/05 15:16:52;;;;;;;10.07;4.60;;;;;;;;;;5034389;28;20060;-68
2021/12/05 15:19:19;;;;;;;12.55;6.20;;;;;;;;;;5034526;28;20081;-68
2021/12/05 15:21:46;;;;;;;20.42;7.22;;;;;;;;;;5034486;28;21224;-68
2021/12/05 15:24:14;;;;;;;23.13;9.18;;;;;;;;;;5034152;28;20192;-68
2021/12/05 15:26:42;;;;;;;26.83;10.20;;;;;;;;;;5035154;28;20076;-68
2021/12/05 15:29:09;;;;;;;26.02;11.50;;;;;;;;;;5033600;28;20144;-68
2021/12/05 15:31:37;;;;;;;22.55;9.32;;;;;;;;;;5035600;28;20879;-68
2021/12/05 15:34:21;;;;;;;14.20;5.53;;;;;;;;;;5035662;28;20139;-68
2021/12/05 15:36:48;;;;;;;12.68;5.53;;;;;;;;;;5035602;28;20614;-68
2021/12/05 15:39:19;;;;;;;23.80;6.75;;;;;;;;;;5035734;28;20145;-68
2021/12/05 15:41:48;;;;;;;8.27;4.10;;;;;;;;;;5036635;28;20130;-68
2021/12/05 15:44:33;;;;;;;12.57;4.75;;;;;;;;;;5036512;28;21279;-68
2021/12/05 15:47:05;;;;;;;5.80;3.03;;;;;;;;;;5035806;28;20060;-68
2021/12/05 15:49:58;;;;;;;5.45;2.53;;;;;;;;;;5034351;28;20132;-68
2021/12/05 15:52:29;;;;;;;11.48;4.03;;;;;;;;;;5039993;28;20136;-69
2021/12/05 15:54:56;;;;;;;10.02;4.65;;;;;;;;;;5041715;28;20123;-69
2021/12/05 15:57:31;;;;;;;12.05;7.05;;;;;;;;;;5043044;28;20056;-68
2021/12/05 16:00:00;;;;;;;15.57;5.88;;;;;;;;;;5039635;28;20052;-69
2021/12/05 16:02:26;;;;;;;12.65;5.63;;;;;;;;;;5039708;28;20048;-68
2021/12/05 16:04:53;;;;;;;15.57;5.57;;;;;;;;;;5039933;28;20075;-68
2021/12/05 16:07:20;;;;;;;6.97;3.38;;;;;;;;;;5041701;28;20123;-68
2021/12/05 16:09:47;;;;;;;11.95;4.03;;;;;;;;;;5042125;28;20057;-68
2021/12/05 16:12:16;;;;;;;6.35;3.85;;;;;;;;;;5040617;28;20056;-68
2021/12/05 16:14:46;;;;;;;5.90;2.92;;;;;;;;;;5042194;28;20079;-68
2021/12/05 16:17:15;;;;;;;7.85;3.78;;;;;;;;;;5040481;28;20111;-68
2021/12/05 16:20:10;;;;;;;5.57;2.47;;;;;;;;;;5042026;28;20721;-68
2021/12/05 16:23:03;;;;;;;3.60;1.90;;;;;;;;;;5040253;28;20045;-69
2021/12/05 16:25:30;;;;;;;5.38;2.58;;;;;;;;;;5041398;28;20126;-68
2021/12/05 16:28:02;;;;;;;7.75;3.50;;;;;;;;;;5041803;28;20154;-68
2021/12/05 16:30:33;;;;;;;6.90;3.35;;;;;;;;;;5039372;28;20115;-68
2021/12/05 16:33:00;;;;;;;5.28;2.75;;;;;;;;;;5040005;28;20148;-68
2021/12/05 16:35:30;;;;;;;7.10;3.10;;;;;;;;;;5041269;28;20068;-68
2021/12/05 16:37:56;;;;;;;5.30;2.47;;;;;;;;;;5039837;28;20185;-68
2021/12/05 16:40:24;;;;;;;6.65;2.58;;;;;;;;;;5042101;28;20503;-68
2021/12/05 16:43:07;;;;;;;5.30;2.72;;;;;;;;;;5040327;28;20092;-68
2021/12/05 16:45:37;;;;;;;5.90;2.42;;;;;;;;;;5042279;28;20098;-68
2021/12/05 16:48:04;;;;;;;3.67;2.15;;;;;;;;;;5037118;28;20201;-68
2021/12/05 16:50:31;;;;;;;7.35;3.85;;;;;;;;;;5040399;28;20061;-68
2021/12/05 16:52:58;;;;;;;5.60;3.33;;;;;;;;;;5040143;28;20175;-68
2021/12/05 16:55:27;;;;;;;3.10;1.90;;;;;;;;;;5041774;28;20055;-68
2021/12/05 16:57:59;;;;;;;4.40;1.30;;;;;;;;;;5042224;28;20076;-68
2021/12/05 17:00:28;;;;;;;5.82;3.10;;;;;;;;;;5040513;28;20138;-68
2021/12/05 17:02:58;;;;;;;8.70;4.15;;;;;;;;;;5041245;28;20132;-68
2021/12/05 17:05:27;;;;;;;7.97;3.45;;;;;;;;;;5038415;28;20068;-68
2021/12/05 17:08:02;;;;;;;10.75;2.15;;;;;;;;;;5039341;28;20059;-68
2021/12/05 17:10:39;;;;;;;3.83;1.38;;;;;;;;;;5040978;28;20055;-68
2021/12/05 17:13:10;;;;;;;4.50;1.85;;;;;;;;;;5042254;28;20052;-68
2021/12/05 17:15:38;;;;;;;4.63;1.58;;;;;;;;;;5042573;28;20049;-68
2021/12/05 17:18:16;;;;;;;6.03;1.58;;;;;;;;;;5043394;28;20049;-68
2021/12/05 17:20:46;;;;;;;4.32;1.83;;;;;;;;;;5046133;28;20053;-68
2021/12/05 17:23:16;;;;;;;4.43;1.52;;;;;;;;;;5045398;28;20143;-68
2021/12/05 17:25:44;;;;;;;5.68;2.72;;;;;;;;;;5046344;28;20080;-69
2021/12/05 17:28:14;;;;;;;2.90;1.65;;;;;;;;;;5055987;28;20053;-69
2021/12/05 17:30:50;;;;;;;11.68;5.97;;;;;;;;;;5053972;28;20110;-68
2021/12/05 17:33:26;;;;;;;10.85;6.55;;;;;;;;;;5051677;28;20071;-69
2021/12/05 17:35:53;;;;;;;10.65;4.35;;;;;;;;;;5054723;28;20616;-69
2021/12/05 17:38:31;;;;;;;7.22;3.88;;;;;;;;;;5052569;28;20053;-68
2021/12/05 17:40:59;;;;;;;11.02;5.30;;;;;;;;;;5053993;28;20056;-68
2021/12/05 17:43:26;;;;;;;10.82;4.75;;;;;;;;;;5054140;28;20514;-69
2021/12/05 17:45:52;;;;;;;8.15;2.70;;;;;;;;;;5055520;28;20131;-68
2021/12/05 17:48:19;;;;;;;5.72;2.45;;;;;;;;;;5056178;28;21388;-69
2021/12/05 17:50:50;;;;;;;4.32;1.75;;;;;;;;;;5056971;28;20098;-70
2021/12/05 17:53:17;;;;;;;3.90;2.00;;;;;;;;;;5052105;28;20046;-68
2021/12/05 17:55:46;;;;;;;4.45;2.10;;;;;;;;;;5051186;28;20052;-68
2021/12/05 17:58:23;;;;;;;6.97;3.15;;;;;;;;;;5053153;28;20110;-68
2021/12/05 18:02:36;;;;;;;7.03;2.22;;;;;;;;;;5049556;28;20141;-69
2021/12/05 18:03:43;;;;;;;5.85;2.17;;;;;;;;;;5053768;28;20040;-69
2021/12/05 18:06:12;;;;;;;4.70;1.92;;;;;;;;;;5052994;28;20140;-69
2021/12/05 18:08:40;;;;;;;4.38;2.10;;;;;;;;;;5053496;28;20491;-68
2021/12/05 18:11:11;;;;;;;5.60;2.15;;;;;;;;;;5053582;28;20052;-68
2021/12/05 18:13:40;;;;;;;8.07;4.82;;;;;;;;;;5053013;28;20055;-68
2021/12/05 18:16:15;;;;;;;6.47;3.90;;;;;;;;;;5050360;28;20122;-68
2021/12/05 18:18:44;;;;;;;7.28;3.70;;;;;;;;;;5053444;28;20056;-68
2021/12/05 18:21:12;;;;;;;10.25;3.88;;;;;;;;;;5052787;28;20053;-68
2021/12/05 18:23:39;;;;;;;10.85;3.83;;;;;;;;;;5054396;28;20083;-69
2021/12/05 18:26:07;;;;;;;7.53;3.35;;;;;;;;;;5052934;28;20514;-68
2021/12/05 18:28:34;;;;;;;3.95;2.58;;;;;;;;;;5054792;28;20049;-69
2021/12/05 18:31:01;;;;;;;6.65;3.58;;;;;;;;;;5054220;28;20055;-68
2021/12/05 18:33:30;;;;;;;7.38;3.00;;;;;;;;;;5051905;28;21563;-69
2021/12/05 18:35:56;;;;;;;14.23;8.23;;;;;;;;;;5053286;28;20495;-69
2021/12/05 18:38:25;;;;;;;13.35;5.90;;;;;;;;;;5053327;28;20049;-71
2021/12/05 18:40:55;;;;;;;12.95;5.32;;;;;;;;;;5052582;28;20053;-68
2021/12/05 18:43:25;;;;;;;11.48;5.50;;;;;;;;;;5052815;28;20057;-67
2021/12/05 18:45:53;;;;;;;10.70;5.93;;;;;;;;;;5052297;28;20053;-68
2021/12/05 18:48:20;;;;;;;9.02;5.43;;;;;;;;;;5055943;28;20049;-68
2021/12/05 18:50:48;;;;;;;11.45;5.60;;;;;;;;;;5054631;28;20056;-68
2021/12/05 18:53:17;;;;;;;15.95;7.93;;;;;;;;;;5053539;28;20153;-68
2021/12/05 18:55:47;;;;;;;16.05;7.72;;;;;;;;;;5052061;28;20517;-68
2021/12/05 18:58:14;;;;;;;19.35;8.20;;;;;;;;;;5052397;28;20057;-68
2021/12/05 19:06:33;;;;;;;17.50;9.52;;;;;;;;;;5050434;28;20052;-68
2021/12/05 19:09:14;;;;;;;18.60;10.30;;;;;;;;;;5050563;28;21286;-68